Time;durP1;ratioP1;P1;durP2;ratioP2;P2;SDS_P1;SDS_P2;PMS_P1;PMS_P2;Temp;Humidity;BMP_temperature;BMP_pressure;BME280_temperature;BME280_humidity;BME280_pressure;Samples;Min_cycle;Max_cycle;Signal;HPM_P1;HPM_P2
2021/09/05 00:01:59;;;;;;;20.70;16.02;;;;;;;11.76;66.86;101177.25;4899359;28;123772;-61
2021/09/05 00:04:25;;;;;;;23.38;17.10;;;;;;;11.74;67.37;101171.28;4898589;28;128812;-61
2021/09/05 00:06:51;;;;;;;21.67;16.63;;;;;;;11.71;67.58;101171.78;4898082;28;127860;-61
2021/09/05 00:09:17;;;;;;;23.50;16.35;;;;;;;11.68;67.56;101172.31;4899594;28;127733;-66
2021/09/05 00:11:43;;;;;;;21.30;16.70;;;;;;;11.65;67.06;101172.84;4893508;28;122988;-60
2021/09/05 00:14:09;;;;;;;20.05;16.27;;;;;;;11.62;67.18;101173.34;4880481;28;127802;-60
2021/09/05 00:16:35;;;;;;;21.35;15.48;;;;;;;11.61;68.07;101167.13;4881130;28;128634;-65
2021/09/05 00:19:01;;;;;;;19.02;14.75;;;;;;;11.61;68.01;101171.72;4879964;28;128414;-61
2021/09/05 00:21:27;;;;;;;16.63;14.25;;;;;;;11.60;67.69;101175.50;4880422;28;121121;-65
2021/09/05 00:23:53;;;;;;;16.73;14.45;;;;;;;11.56;67.69;101167.09;4880091;28;127584;-63
2021/09/05 00:26:19;;;;;;;18.33;14.43;;;;;;;11.51;67.51;101165.16;4881325;28;104358;-66
2021/09/05 00:28:45;;;;;;;16.88;13.45;;;;;;;11.47;67.79;101169.41;4881422;28;98306;-61
2021/09/05 00:31:11;;;;;;;18.17;13.82;;;;;;;11.46;67.98;101167.81;4879867;28;123635;-60
2021/09/05 00:33:37;;;;;;;17.70;13.85;;;;;;;11.45;67.49;101171.56;4891061;28;128950;-61
2021/09/05 00:36:04;;;;;;;18.88;15.57;;;;;;;11.45;68.09;101168.06;4899813;28;98202;-61
2021/09/05 00:38:30;;;;;;;20.52;15.27;;;;;;;11.44;68.05;101164.56;4900016;28;99387;-60
2021/09/05 00:40:56;;;;;;;23.17;16.67;;;;;;;11.46;67.93;101172.38;4881513;28;122411;-65
2021/09/05 00:43:22;;;;;;;23.00;16.48;;;;;;;11.45;68.14;101168.88;4880614;28;98880;-65
2021/09/05 00:45:48;;;;;;;23.13;17.25;;;;;;;11.45;67.92;101174.28;4879549;28;126907;-61
2021/09/05 00:48:14;;;;;;;21.88;16.00;;;;;;;11.38;68.03;101173.66;4879550;28;128013;-61
2021/09/05 00:50:41;;;;;;;20.15;15.30;;;;;;;11.34;68.43;101179.84;4878194;28;124307;-61
2021/09/05 00:53:07;;;;;;;19.73;15.38;;;;;;;11.24;68.41;101173.28;4863030;28;118514;-61
2021/09/05 00:55:36;;;;;;;24.98;16.55;;;;;;;11.12;68.22;101169.91;4878530;28;128312;-61
2021/09/05 00:58:03;;;;;;;23.95;17.77;;;;;;;11.04;68.68;101170.34;4879857;28;98829;-60
2021/09/05 01:00:31;;;;;;;21.75;16.67;;;;;;;11.01;69.13;101179.78;4883183;28;97869;-61
2021/09/05 01:02:57;;;;;;;19.23;15.50;;;;;;;11.03;68.96;101184.91;4899751;28;97953;-65
2021/09/05 01:05:24;;;;;;;22.48;16.80;;;;;;;11.05;68.72;101175.50;4899695;28;98358;-65
2021/09/05 01:07:50;;;;;;;21.10;16.63;;;;;;;11.05;68.75;101177.38;4888575;28;98090;-65
2021/09/05 01:10:16;;;;;;;23.80;18.25;;;;;;;11.03;68.54;101180.31;4879179;28;122822;-65
2021/09/05 01:12:42;;;;;;;20.67;16.85;;;;;;;11.02;68.70;101185.97;4879476;28;128101;-61
2021/09/05 01:15:08;;;;;;;20.23;15.60;;;;;;;11.03;68.88;101184.91;4880755;28;127933;-60
2021/09/05 01:17:36;;;;;;;21.80;17.38;;;;;;;11.01;68.92;101200.53;4902156;28;99256;-61
2021/09/05 01:20:07;;;;;;;23.40;17.77;;;;;;;10.94;68.32;101194.53;4901062;28;97989;-61
2021/09/05 01:22:34;;;;;;;21.90;17.80;;;;;;;10.87;68.95;101196.59;4900930;28;102965;-65
2021/09/05 01:25:00;;;;;;;25.50;19.08;;;;;;;10.80;68.71;101202.16;4900965;28;98175;-65
2021/09/05 01:27:26;;;;;;;25.48;18.92;;;;;;;10.78;69.10;101207.00;4894445;28;109101;-60
2021/09/05 01:29:53;;;;;;;24.30;18.33;;;;;;;10.75;68.95;101212.91;4882574;28;120959;-60
2021/09/05 01:32:19;;;;;;;21.42;17.55;;;;;;;10.76;69.32;101207.25;4881135;28;98610;-60
2021/09/05 01:34:45;;;;;;;20.65;17.05;;;;;;;10.77;69.60;101208.91;4884307;28;127954;-61
2021/09/05 01:37:11;;;;;;;24.35;17.55;;;;;;;10.77;69.10;101208.91;4884427;28;99876;-65
2021/09/05 01:39:37;;;;;;;22.00;17.77;;;;;;;10.78;69.12;101209.72;4899960;28;97768;-61
2021/09/05 01:42:03;;;;;;;22.77;17.42;;;;;;;10.80;69.01;101223.75;4881375;28;98122;-61
2021/09/05 01:44:29;;;;;;;20.50;16.33;;;;;;;10.81;69.02;101214.59;4888709;28;112295;-65
2021/09/05 01:46:55;;;;;;;20.40;15.40;;;;;;;10.84;69.25;101218.66;4881803;28;127607;-60
2021/09/05 01:49:21;;;;;;;19.88;16.13;;;;;;;10.88;69.18;101211.69;4882541;28;121086;-65
2021/09/05 01:51:47;;;;;;;19.92;15.68;;;;;;;10.95;68.85;101206.94;4883160;28;126378;-65
2021/09/05 01:54:14;;;;;;;20.92;16.02;;;;;;;11.00;68.92;101218.63;4901829;28;126483;-65
2021/09/05 01:56:40;;;;;;;20.63;16.40;;;;;;;11.01;68.99;101217.53;4900254;28;98039;-61
2021/09/05 01:59:06;;;;;;;27.60;16.00;;;;;;;10.98;68.55;101218.03;4901788;28;111018;-66
2021/09/05 02:01:32;;;;;;;24.25;15.52;;;;;;;10.91;68.78;101230.09;4889963;28;111053;-66
2021/09/05 02:03:58;;;;;;;23.13;15.23;;;;;;;10.87;69.04;101226.25;4878733;28;119351;-65
2021/09/05 02:06:26;;;;;;;21.60;14.90;;;;;;;10.80;69.02;101226.44;4910622;28;98115;-65
2021/09/05 02:08:53;;;;;;;17.85;14.48;;;;;;;10.78;69.13;101226.69;4901772;28;98056;-65
2021/09/05 02:11:19;;;;;;;18.95;15.27;;;;;;;10.80;69.57;101227.25;4892996;28;112642;-60
2021/09/05 02:13:45;;;;;;;17.48;14.38;;;;;;;10.84;69.53;101230.25;4881540;28;128706;-61
2021/09/05 02:16:13;;;;;;;16.67;13.82;;;;;;;10.89;69.70;101224.13;4880515;28;126595;-61
2021/09/05 02:18:39;;;;;;;20.63;15.57;;;;;;;10.95;69.49;101218.53;4893520;28;97844;-65
2021/09/05 02:21:05;;;;;;;18.48;14.65;;;;;;;10.98;69.06;101217.22;4900953;28;109769;-66
2021/09/05 02:23:31;;;;;;;16.80;14.27;;;;;;;11.02;69.00;101221.06;4901472;28;126593;-65
2021/09/05 02:25:57;;;;;;;21.27;15.38;;;;;;;11.08;69.49;101217.31;4901249;28;115671;-61
2021/09/05 02:28:23;;;;;;;19.42;15.10;;;;;;;11.09;69.17;101221.69;4900849;28;123055;-61
2021/09/05 02:30:49;;;;;;;16.95;14.00;;;;;;;11.13;68.98;101216.59;4894359;28;128767;-66
2021/09/05 02:33:15;;;;;;;18.35;14.50;;;;;;;11.17;68.90;101218.53;4881133;28;98506;-61
2021/09/05 02:35:41;;;;;;;19.02;14.85;;;;;;;11.22;68.75;101223.97;4880961;28;98288;-61
2021/09/05 02:38:07;;;;;;;38.60;16.13;;;;;;;11.24;68.81;101226.44;4881392;28;122877;-61
2021/09/05 02:40:33;;;;;;;58.40;17.80;;;;;;;11.22;69.53;101225.88;4883430;28;126718;-61
2021/09/05 02:43:00;;;;;;;24.40;16.10;;;;;;;11.19;69.45;101231.75;4899769;28;110410;-65
2021/09/05 02:45:26;;;;;;;32.95;16.35;;;;;;;11.18;70.14;101228.25;4884200;28;98649;-66
2021/09/05 02:47:52;;;;;;;19.75;14.98;;;;;;;11.18;70.05;101236.34;4900062;28;122173;-65
2021/09/05 02:50:18;;;;;;;29.77;14.93;;;;;;;11.20;70.30;101233.38;4899888;28;97857;-65
2021/09/05 02:52:44;;;;;;;25.20;13.82;;;;;;;11.14;69.92;101234.41;4901769;28;98844;-61
2021/09/05 02:55:10;;;;;;;17.90;13.32;;;;;;;11.13;69.90;101244.41;4900302;28;126390;-63
2021/09/05 02:57:36;;;;;;;19.45;13.68;;;;;;;11.14;69.89;101237.09;4883622;28;108230;-66
2021/09/05 03:00:04;;;;;;;15.93;13.35;;;;;;;11.14;70.50;101235.22;4881515;28;126863;-61
2021/09/05 03:02:30;;;;;;;19.98;13.68;;;;;;;11.17;69.81;101240.13;4882756;28;98664;-61
2021/09/05 03:04:56;;;;;;;15.25;12.73;;;;;;;11.17;69.98;101226.63;4881809;28;111263;-66
2021/09/05 03:07:22;;;;;;;16.60;12.55;;;;;;;11.18;69.81;101227.44;4900310;28;121085;-61
2021/09/05 03:09:48;;;;;;;18.08;13.15;;;;;;;11.18;69.97;101220.16;4900586;28;98866;-66
2021/09/05 03:12:14;;;;;;;15.70;12.80;;;;;;;11.18;70.14;101222.84;4899533;28;126794;-66
2021/09/05 03:14:40;;;;;;;16.33;13.00;;;;;;;11.20;69.62;101217.19;4899081;28;119238;-66
2021/09/05 03:17:06;;;;;;;15.48;13.38;;;;;;;11.20;69.81;101223.44;4900871;28;123980;-61
2021/09/05 03:19:32;;;;;;;15.93;12.85;;;;;;;11.22;70.50;101223.97;4899879;28;121547;-66
2021/09/05 03:21:58;;;;;;;16.45;13.25;;;;;;;11.23;69.84;101216.69;4881676;28;99862;-61
2021/09/05 03:24:24;;;;;;;16.67;14.02;;;;;;;11.25;70.00;101214.56;4889408;28;127652;-61
2021/09/05 03:26:51;;;;;;;17.63;14.05;;;;;;;11.24;69.73;101216.47;4895102;28;98051;-61
2021/09/05 03:29:17;;;;;;;15.30;13.40;;;;;;;11.23;69.43;101219.38;4880240;28;127009;-65
2021/09/05 03:31:43;;;;;;;17.38;14.02;;;;;;;11.22;69.32;101223.97;4863042;28;126865;-66
2021/09/05 03:34:09;;;;;;;17.30;13.70;;;;;;;11.21;69.42;101224.25;4862917;28;126917;-62
2021/09/05 03:36:35;;;;;;;22.00;14.27;;;;;;;11.20;69.78;101230.69;4886020;28;122925;-61
2021/09/05 03:39:01;;;;;;;16.58;13.65;;;;;;;11.16;69.41;101219.59;4861348;28;127581;-65
2021/09/05 03:41:27;;;;;;;15.68;13.32;;;;;;;11.14;69.28;101231.72;4895030;28;107488;-66
2021/09/05 03:43:53;;;;;;;16.15;13.50;;;;;;;11.11;69.60;101224.13;4881539;28;97978;-65
2021/09/05 03:46:19;;;;;;;19.05;14.15;;;;;;;11.04;69.91;101229.69;4880370;28;123582;-66
2021/09/05 03:48:45;;;;;;;22.08;13.65;;;;;;;10.99;69.62;101225.06;4878753;28;127973;-61
2021/09/05 03:51:11;;;;;;;23.50;12.80;;;;;;;10.93;70.02;101236.88;4881035;28;128058;-61
2021/09/05 03:53:37;;;;;;;15.15;12.63;;;;;;;10.89;69.56;101245.72;4849449;28;111936;-61
2021/09/05 03:56:03;;;;;;;15.93;12.50;;;;;;;10.86;70.03;101244.31;4899761;28;123523;-61
2021/09/05 03:58:29;;;;;;;15.57;13.18;;;;;;;10.86;70.08;101240.81;4900018;28;128272;-65
2021/09/05 04:00:55;;;;;;;15.38;12.63;;;;;;;10.86;70.33;101244.31;4898171;28;105369;-65
2021/09/05 04:03:23;;;;;;;18.60;13.23;;;;;;;10.87;70.12;101250.53;4896923;28;126898;-65
2021/09/05 04:05:49;;;;;;;21.00;13.25;;;;;;;10.82;69.94;101252.09;4898884;28;97760;-65
2021/09/05 04:08:16;;;;;;;15.40;12.80;;;;;;;10.76;70.18;101250.38;4899976;28;98699;-65
2021/09/05 04:10:42;;;;;;;15.13;13.23;;;;;;;10.74;70.46;101246.31;4900041;28;98223;-61
2021/09/05 04:13:10;;;;;;;16.15;12.98;;;;;;;10.75;70.50;101245.25;4900059;28;98246;-61
2021/09/05 04:15:37;;;;;;;24.05;13.88;;;;;;;10.71;69.96;101254.91;4896892;28;98243;-66
2021/09/05 04:18:03;;;;;;;34.15;14.57;;;;;;;10.61;70.48;101250.22;4900071;28;98515;-66
2021/09/05 04:20:29;;;;;;;27.85;13.73;;;;;;;10.53;69.81;101258.69;4898861;28;123336;-61
2021/09/05 04:22:55;;;;;;;25.55;14.70;;;;;;;10.42;70.56;101252.34;4884474;28;128461;-61
2021/09/05 04:25:21;;;;;;;45.28;15.00;;;;;;;10.37;70.95;101260.34;4880586;28;97803;-60
2021/09/05 04:27:48;;;;;;;23.98;14.93;;;;;;;10.31;70.89;101261.34;4861869;28;128191;-66
2021/09/05 04:30:14;;;;;;;27.65;15.25;;;;;;;10.28;71.02;101257.25;4880241;28;127997;-61
2021/09/05 04:32:40;;;;;;;30.33;15.20;;;;;;;10.29;71.17;101260.75;4879823;28;118081;-61
2021/09/05 04:35:07;;;;;;;16.55;13.85;;;;;;;10.29;71.37;101260.75;4863227;28;97862;-61
2021/09/05 04:37:33;;;;;;;23.92;14.48;;;;;;;10.29;71.45;101261.56;4861446;28;100304;-61
2021/09/05 04:39:59;;;;;;;18.80;14.05;;;;;;;10.30;71.74;101265.94;4864135;28;98379;-61
2021/09/05 04:42:25;;;;;;;21.80;14.27;;;;;;;10.32;71.67;101271.06;4880896;28;98706;-62
2021/09/05 04:44:52;;;;;;;25.90;14.05;;;;;;;10.36;71.77;101266.81;4879677;28;123721;-66
2021/09/05 04:47:19;;;;;;;20.08;13.65;;;;;;;10.42;71.25;101282.00;4896318;28;98030;-61
2021/09/05 04:49:45;;;;;;;15.75;13.20;;;;;;;10.47;71.33;101273.97;4899640;28;101951;-61
2021/09/05 04:52:11;;;;;;;19.08;14.38;;;;;;;10.52;71.19;101282.13;4896394;28;117625;-61
2021/09/05 04:54:37;;;;;;;18.60;12.90;;;;;;;10.56;71.34;101271.69;4865462;28;123209;-62
2021/09/05 04:57:04;;;;;;;15.90;13.48;;;;;;;10.62;71.38;101284.19;4875678;28;127859;-61
2021/09/05 04:59:30;;;;;;;22.33;14.05;;;;;;;10.63;70.90;101277.72;4883351;28;107368;-60
2021/09/05 05:01:56;;;;;;;19.27;13.07;;;;;;;10.66;70.74;101284.50;4883966;28;114747;-61
2021/09/05 05:04:22;;;;;;;18.02;13.50;;;;;;;10.68;70.86;101277.78;4882744;28;115313;-66
2021/09/05 05:06:49;;;;;;;14.85;12.80;;;;;;;10.73;70.97;101279.75;4876563;28;127915;-65
2021/09/05 05:09:15;;;;;;;16.10;14.35;;;;;;;10.79;70.69;101284.94;4897128;28;127493;-66
2021/09/05 05:11:42;;;;;;;17.63;14.02;;;;;;;10.86;71.08;101287.47;4868950;28;99508;-65
2021/09/05 05:14:09;;;;;;;16.00;13.85;;;;;;;10.91;70.83;101292.94;4916934;28;109875;-66
2021/09/05 05:16:35;;;;;;;21.95;14.30;;;;;;;10.99;70.17;101289.00;4906263;28;98654;-66
2021/09/05 05:19:01;;;;;;;16.23;13.43;;;;;;;11.06;70.69;101292.31;4882789;28;128209;-61
2021/09/05 05:21:28;;;;;;;17.05;13.57;;;;;;;11.16;70.67;101302.41;4883066;28;121212;-65
2021/09/05 05:23:54;;;;;;;14.98;12.88;;;;;;;11.25;70.24;101303.63;4883671;28;97985;-61
2021/09/05 05:26:21;;;;;;;15.65;14.05;;;;;;;11.34;69.69;101306.69;4882647;28;128100;-60
2021/09/05 05:28:47;;;;;;;14.27;12.85;;;;;;;11.43;69.66;101307.88;4901595;28;98873;-60
2021/09/05 05:31:13;;;;;;;13.27;11.82;;;;;;;11.52;69.67;101298.28;4898263;28;121225;-61
2021/09/05 05:33:39;;;;;;;13.85;12.23;;;;;;;11.61;69.21;101301.34;4892639;28;122280;-61
2021/09/05 05:36:05;;;;;;;14.40;12.52;;;;;;;11.68;69.10;101305.47;4892505;28;126353;-66
2021/09/05 05:38:31;;;;;;;14.10;12.52;;;;;;;11.76;68.93;101313.13;4883261;28;126103;-66
2021/09/05 05:40:57;;;;;;;13.88;12.43;;;;;;;11.86;68.67;101307.00;4882764;28;98014;-61
2021/09/05 05:43:23;;;;;;;14.68;13.02;;;;;;;11.98;68.47;101306.84;4880373;28;123207;-66
2021/09/05 05:45:49;;;;;;;15.10;13.20;;;;;;;12.05;67.85;101304.75;4893514;28;127986;-61
2021/09/05 05:48:15;;;;;;;17.80;15.02;;;;;;;12.14;67.83;101305.09;4880136;28;100802;-65
2021/09/05 05:50:42;;;;;;;15.50;13.45;;;;;;;12.04;68.12;101313.94;4895776;28;128107;-61
2021/09/05 05:53:08;;;;;;;16.48;12.43;;;;;;;11.92;68.43;101316.00;4896221;28;98043;-66
2021/09/05 05:55:35;;;;;;;16.73;14.68;;;;;;;11.87;68.54;101316.78;4877220;28;127492;-66
2021/09/05 05:58:01;;;;;;;15.82;14.23;;;;;;;11.86;68.84;101323.22;4883874;28;99187;-65
2021/09/05 06:00:27;;;;;;;14.35;12.85;;;;;;;11.86;68.64;101322.41;4888523;28;97951;-66
2021/09/05 06:02:54;;;;;;;14.85;13.18;;;;;;;11.88;68.63;101326.50;4889730;28;101431;-61
2021/09/05 06:05:20;;;;;;;15.82;12.98;;;;;;;11.95;68.76;101323.59;4879696;28;122702;-61
2021/09/05 06:07:46;;;;;;;15.95;13.27;;;;;;;12.04;68.63;101317.47;4901000;28;116453;-61
2021/09/05 06:10:13;;;;;;;14.00;12.60;;;;;;;12.08;68.33;101325.88;4899857;28;108946;-61
2021/09/05 06:12:39;;;;;;;15.63;13.65;;;;;;;12.12;68.30;101326.19;4900558;28;118503;-61
2021/09/05 06:15:06;;;;;;;14.05;12.55;;;;;;;12.12;68.69;101328.88;4901696;28;98678;-66
2021/09/05 06:17:32;;;;;;;17.40;13.27;;;;;;;12.11;68.68;101333.47;4897717;28;98878;-61
2021/09/05 06:19:58;;;;;;;21.10;12.70;;;;;;;12.09;68.13;101337.50;4881444;28;128332;-65
2021/09/05 06:22:24;;;;;;;14.85;13.25;;;;;;;12.06;68.58;101333.41;4882440;28;116532;-65
2021/09/05 06:24:50;;;;;;;14.70;13.20;;;;;;;12.18;68.41;101341.34;4882375;28;99055;-61
2021/09/05 06:27:16;;;;;;;13.77;12.25;;;;;;;12.38;67.90;101338.84;4883126;28;117289;-61
2021/09/05 06:29:42;;;;;;;13.35;12.05;;;;;;;12.67;67.68;101341.22;4881015;28;125628;-66
2021/09/05 06:32:09;;;;;;;14.45;12.25;;;;;;;12.91;66.76;101342.44;4891223;28;123551;-61
2021/09/05 06:34:35;;;;;;;13.13;11.77;;;;;;;13.08;66.49;101346.88;4849070;28;100246;-65
2021/09/05 06:37:01;;;;;;;14.07;12.65;;;;;;;13.23;65.97;101339.66;4890921;28;118389;-61
2021/09/05 06:39:27;;;;;;;13.00;11.07;;;;;;;13.44;65.60;101340.59;4881850;28;128938;-65
2021/09/05 06:41:53;;;;;;;12.88;11.57;;;;;;;13.71;65.39;101343.09;4881954;28;123546;-61
2021/09/05 06:44:19;;;;;;;11.85;10.70;;;;;;;14.00;65.06;101340.72;4880916;28;128591;-66
2021/09/05 06:46:45;;;;;;;11.40;10.40;;;;;;;14.24;64.37;101342.91;4882492;28;121164;-61
2021/09/05 06:49:11;;;;;;;10.93;9.93;;;;;;;14.49;63.97;101336.69;4882954;28;126329;-66
2021/09/05 06:51:37;;;;;;;10.93;9.82;;;;;;;14.80;63.32;101342.09;4891606;28;123187;-66
2021/09/05 06:54:03;;;;;;;11.27;10.10;;;;;;;15.01;62.85;101342.84;4900492;28;127681;-61
2021/09/05 06:56:29;;;;;;;11.02;9.93;;;;;;;15.17;62.79;101341.75;4900206;28;126749;-61
2021/09/05 06:58:55;;;;;;;11.80;10.68;;;;;;;15.32;62.06;101341.66;4883337;28;123211;-66
2021/09/05 07:01:21;;;;;;;11.18;10.15;;;;;;;15.53;62.11;101341.59;4892432;28;121700;-61
2021/09/05 07:03:47;;;;;;;24.25;10.85;;;;;;;15.62;62.54;101340.72;4882561;28;104003;-65
2021/09/05 07:06:13;;;;;;;11.45;10.38;;;;;;;15.83;62.01;101343.34;4894652;28;127920;-61
2021/09/05 07:08:40;;;;;;;12.30;11.10;;;;;;;16.00;61.49;101351.94;4900857;28;106648;-61
2021/09/05 07:11:06;;;;;;;11.73;10.63;;;;;;;16.17;61.30;101343.38;4899933;28;98238;-61
2021/09/05 07:13:32;;;;;;;13.07;11.77;;;;;;;16.32;61.35;101354.16;4898306;28;127490;-66
2021/09/05 07:15:58;;;;;;;14.98;12.48;;;;;;;16.50;60.99;101347.19;4899815;28;129351;-65
2021/09/05 07:18:24;;;;;;;14.90;12.70;;;;;;;16.63;61.16;101354.72;4887077;28;100298;-66
2021/09/05 07:20:51;;;;;;;16.17;13.13;;;;;;;16.62;61.32;101361.25;4882208;28;123751;-61
2021/09/05 07:23:17;;;;;;;16.85;12.93;;;;;;;16.60;61.44;101362.63;4882837;28;98929;-66
2021/09/05 07:25:43;;;;;;;15.05;13.10;;;;;;;16.58;61.74;101362.09;4900620;28;119490;-66
2021/09/05 07:28:09;;;;;;;16.60;13.85;;;;;;;16.57;62.17;101358.56;4892634;28;126047;-61
2021/09/05 07:30:35;;;;;;;15.48;12.95;;;;;;;16.43;62.15;101363.88;4881933;28;122580;-66
2021/09/05 07:33:01;;;;;;;15.82;13.30;;;;;;;16.39;62.26;101370.16;4870823;28;127923;-61
2021/09/05 07:35:27;;;;;;;16.63;13.70;;;;;;;16.37;62.66;101373.16;4900873;28;127740;-61
2021/09/05 07:37:53;;;;;;;16.70;13.95;;;;;;;16.37;62.94;101366.91;4895490;28;98108;-61
2021/09/05 07:40:21;;;;;;;18.95;13.93;;;;;;;16.41;63.12;101367.94;4879006;28;121530;-66
2021/09/05 07:42:47;;;;;;;15.55;12.63;;;;;;;16.44;62.79;101370.91;4881012;28;98203;-61
2021/09/05 07:45:13;;;;;;;14.52;12.68;;;;;;;16.47;62.83;101374.19;4897887;28;110171;-66
2021/09/05 07:47:39;;;;;;;14.80;13.07;;;;;;;16.43;63.34;101376.66;4897194;28;127390;-66
2021/09/05 07:50:07;;;;;;;16.70;13.20;;;;;;;16.39;63.22;101381.84;4898912;28;97997;-61
2021/09/05 07:52:33;;;;;;;15.57;13.52;;;;;;;16.38;63.65;101377.47;4900226;28;111649;-66
2021/09/05 07:54:59;;;;;;;17.33;14.43;;;;;;;16.39;63.38;101386.50;4898741;28;128259;-66
2021/09/05 07:57:25;;;;;;;18.23;14.25;;;;;;;16.34;63.44;101386.50;4881499;28;98439;-66
2021/09/05 07:59:51;;;;;;;17.38;14.52;;;;;;;16.35;63.83;101382.72;4878930;28;121088;-65
2021/09/05 08:02:17;;;;;;;31.83;24.70;;;;;;;16.35;63.94;101388.97;4899453;28;127956;-61
2021/09/05 08:04:43;;;;;;;19.15;15.65;;;;;;;16.42;63.89;101385.91;4900253;28;126716;-61
2021/09/05 08:07:10;;;;;;;21.70;16.95;;;;;;;16.54;64.27;101394.50;4897439;28;128031;-61
2021/09/05 08:09:36;;;;;;;22.10;17.17;;;;;;;16.64;64.06;101396.34;4899905;28;98038;-65
2021/09/05 08:12:03;;;;;;;23.67;17.90;;;;;;;16.78;64.06;101394.63;4867606;28;113403;-61
2021/09/05 08:14:29;;;;;;;22.17;17.67;;;;;;;16.90;64.19;101396.97;4880153;28;116793;-65
2021/09/05 08:16:55;;;;;;;21.70;16.92;;;;;;;16.95;64.13;101402.34;4880688;28;97973;-61
2021/09/05 08:19:21;;;;;;;22.80;18.77;;;;;;;17.07;63.83;101391.06;4878767;28;123158;-61
2021/09/05 08:21:47;;;;;;;23.17;17.85;;;;;;;17.15;63.87;101396.69;4894204;28;128109;-61
2021/09/05 08:24:13;;;;;;;20.88;16.98;;;;;;;17.21;64.26;101402.06;4880681;28;99090;-61
2021/09/05 08:26:39;;;;;;;23.05;18.00;;;;;;;17.25;64.02;101401.22;4883419;28;129289;-65
2021/09/05 08:29:06;;;;;;;26.25;20.33;;;;;;;17.28;64.04;101411.53;4883751;28;122767;-65
2021/09/05 08:31:32;;;;;;;32.08;26.73;;;;;;;17.32;63.92;101409.84;4893260;28;98394;-65
2021/09/05 08:33:58;;;;;;;27.95;23.02;;;;;;;17.32;64.18;101409.03;4902638;28;128419;-61
2021/09/05 08:36:24;;;;;;;28.45;23.27;;;;;;;17.35;63.85;101412.00;4902616;28;127769;-61
2021/09/05 08:38:50;;;;;;;29.95;22.83;;;;;;;17.36;63.73;101415.53;4891437;28;97669;-65
2021/09/05 08:41:16;;;;;;;37.83;31.45;;;;;;;17.35;63.70;101411.19;4884015;28;98014;-61
2021/09/05 08:43:44;;;;;;;82.22;64.28;;;;;;;17.42;64.08;101412.47;4882013;28;105864;-61
2021/09/05 08:46:10;;;;;;;29.95;22.48;;;;;;;17.49;63.65;101416.72;4883303;28;127638;-61
2021/09/05 08:48:36;;;;;;;33.72;28.08;;;;;;;17.53;63.81;101412.34;4875840;28;97867;-65
2021/09/05 08:51:02;;;;;;;27.77;21.88;;;;;;;17.51;63.48;101412.63;4883016;28;128092;-61
2021/09/05 08:53:28;;;;;;;25.92;20.83;;;;;;;17.54;63.36;101413.97;4881405;28;121445;-66
2021/09/05 08:55:54;;;;;;;33.80;28.85;;;;;;;17.53;63.95;101421.34;4883491;28;126904;-61
2021/09/05 08:58:20;;;;;;;34.28;29.02;;;;;;;17.56;63.69;101412.56;4883798;28;97788;-66
2021/09/05 09:00:46;;;;;;;28.60;22.30;;;;;;;17.59;63.45;101411.16;4884197;28;105299;-65
2021/09/05 09:03:22;;;;;;;26.20;20.77;;;;;;;17.62;63.59;101407.88;4883534;28;97922;-61
2021/09/05 09:05:56;;;;;;;23.70;19.65;;;;;;;17.66;63.20;101409.72;4889370;28;98054;-62
2021/09/05 09:08:23;;;;;;;23.20;19.52;;;;;;;17.68;63.11;101406.69;4901713;28;98194;-66
2021/09/05 09:11:02;;;;;;;24.35;19.77;;;;;;;17.68;63.10;101412.13;4900625;28;98671;-66
2021/09/05 09:13:34;;;;;;;28.13;20.05;;;;;;;17.76;62.85;101408.78;4901090;28;99012;-66
2021/09/05 09:16:08;;;;;;;32.00;21.70;;;;;;;17.95;62.44;101406.09;4903341;28;97969;-66
2021/09/05 09:18:35;;;;;;;22.15;18.55;;;;;;;17.94;62.46;101412.66;4903022;28;98260;-61
2021/09/05 09:21:05;;;;;;;38.47;24.45;;;;;;;17.98;62.53;101410.16;4901671;28;120874;-61
2021/09/05 09:23:36;;;;;;;31.08;21.50;;;;;;;18.02;62.48;101413.91;4901031;28;98400;-61
2021/09/05 09:26:05;;;;;;;26.95;18.90;;;;;;;18.18;62.15;101412.59;4901268;28;110299;-61
2021/09/05 09:28:45;;;;;;;29.15;22.65;;;;;;;18.35;61.85;101412.88;4886600;28;111211;-66
2021/09/05 09:31:25;;;;;;;25.55;20.40;;;;;;;19.51;59.16;101404.81;4883248;28;98149;-66
2021/09/05 09:33:54;;;;;;;22.38;19.35;;;;;;;21.37;54.86;101403.66;4889661;28;99105;-65
2021/09/05 09:36:24;;;;;;;19.60;17.38;;;;;;;22.08;53.79;101408.97;4900471;28;97888;-65
2021/09/05 09:39:06;;;;;;;28.35;25.30;;;;;;;21.66;55.67;101414.09;4903069;28;106837;-65
2021/09/05 09:41:40;;;;;;;;;;;;;;;22.56;54.43;101406.06;4902808;28;97898;-61
2021/09/05 09:44:13;;;;;;;24.92;20.92;;;;;;;23.83;50.64;101397.16;4902214;28;97909;-61
2021/09/05 09:46:40;;;;;;;23.05;20.75;;;;;;;25.15;47.73;101405.50;4900770;28;97853;-61
2021/09/05 09:49:08;;;;;;;23.02;20.70;;;;;;;26.79;45.05;101403.25;4893257;28;97632;-66
2021/09/05 09:51:34;;;;;;;21.73;19.50;;;;;;;28.38;42.21;101401.84;4882777;28;98540;-66
2021/09/05 09:54:01;;;;;;;21.38;19.23;;;;;;;29.55;40.09;101405.03;4896675;28;98558;-61
2021/09/05 09:56:27;;;;;;;22.75;20.45;;;;;;;30.44;38.37;101409.00;4901268;28;116394;-61
2021/09/05 09:58:56;;;;;;;19.70;17.75;;;;;;;30.49;38.49;101408.66;4902963;28;97963;-66
2021/09/05 10:01:24;;;;;;;21.60;19.55;;;;;;;30.70;38.17;101390.59;4898586;28;99007;-61
2021/09/05 10:03:52;;;;;;;21.27;19.15;;;;;;;31.87;36.37;101392.69;4902766;28;98610;-66
2021/09/05 10:06:21;;;;;;;24.80;22.48;;;;;;;32.40;35.36;101387.31;4901973;28;98353;-66
2021/09/05 10:08:47;;;;;;;19.33;17.55;;;;;;;32.85;34.43;101384.19;4900684;28;111951;-66
2021/09/05 10:11:16;;;;;;;19.88;17.88;;;;;;;33.37;34.59;101379.00;4889379;28;98184;-62
2021/09/05 10:13:43;;;;;;;19.60;17.75;;;;;;;33.84;33.60;101371.28;4883231;28;99023;-62
2021/09/05 10:16:10;;;;;;;18.20;16.60;;;;;;;34.19;32.47;101365.56;4883920;28;98292;-62
2021/09/05 10:18:44;;;;;;;18.17;16.58;;;;;;;34.72;32.44;101366.44;4882750;28;113102;-62
2021/09/05 10:21:11;;;;;;;19.42;17.65;;;;;;;34.89;31.04;101367.47;4868896;28;98640;-66
2021/09/05 10:23:37;;;;;;;20.17;18.30;;;;;;;35.05;30.66;101359.34;4865076;28;98387;-66
2021/09/05 10:26:08;;;;;;;18.55;16.73;;;;;;;35.46;31.01;101352.94;4883392;28;98107;-66
2021/09/05 10:28:43;;;;;;;17.85;16.15;;;;;;;35.55;31.06;101349.66;4881181;28;98056;-66
2021/09/05 10:31:10;;;;;;;16.10;14.60;;;;;;;35.71;29.83;101340.66;4894645;28;97833;-66
2021/09/05 10:33:44;;;;;;;14.30;13.00;;;;;;;36.05;30.05;101343.44;4883191;28;97936;-66
2021/09/05 10:36:15;;;;;;;15.77;14.38;;;;;;;36.02;28.84;101339.47;4889461;28;98060;-62
2021/09/05 10:38:42;;;;;;;15.23;13.90;;;;;;;36.09;28.72;101330.19;4901700;28;97756;-63
2021/09/05 10:41:19;;;;;;;15.65;14.20;;;;;;;36.25;29.45;101323.94;4900716;28;111578;-62
2021/09/05 10:43:48;;;;;;;14.00;12.60;;;;;;;36.20;29.29;101318.78;4884991;28;98436;-62
2021/09/05 10:46:17;;;;;;;13.88;12.55;;;;;;;36.25;28.36;101318.31;4900769;28;97849;-66
2021/09/05 10:48:48;;;;;;;14.85;13.32;;;;;;;36.36;28.70;101310.53;4900860;28;107632;-62
2021/09/05 10:51:22;;;;;;;13.63;12.43;;;;;;;36.32;28.34;101312.59;4899689;28;98972;-62
2021/09/05 10:54:05;;;;;;;13.23;12.02;;;;;;;36.40;28.71;101314.06;4892093;28;97967;-62
2021/09/05 10:56:43;;;;;;;12.98;11.77;;;;;;;36.30;28.81;101304.59;4902483;28;98001;-67
2021/09/05 10:59:11;;;;;;;12.15;11.13;;;;;;;35.80;28.74;101313.69;4882309;28;97848;-66
2021/09/05 11:01:48;;;;;;;12.40;11.27;;;;;;;35.52;29.09;101305.66;4882232;28;98404;-62
2021/09/05 11:04:17;;;;;;;12.63;11.35;;;;;;;35.31;28.77;101310.28;4882066;28;98400;-67